sensor_id;sensor_type;location;lat;lon;timestamp;P1;durP1;ratioP1;P2;durP2;ratioP2
7171;SDS011;3627;46.544;14.944;2023-04-06T00:01:22;6.90;;;4.50;;
7171;SDS011;3627;46.544;14.944;2023-04-06T00:03:49;7.37;;;5.13;;
7171;SDS011;3627;46.544;14.944;2023-04-06T00:06:17;6.57;;;5.23;;
7171;SDS011;3627;46.544;14.944;2023-04-06T00:08:43;7.23;;;5.70;;
7171;SDS011;3627;46.544;14.944;2023-04-06T00:11:10;10.03;;;6.17;;
7171;SDS011;3627;46.544;14.944;2023-04-06T00:13:36;7.90;;;5.50;;
7171;SDS011;3627;46.544;14.944;2023-04-06T00:16:03;6.43;;;5.10;;
7171;SDS011;3627;46.544;14.944;2023-04-06T00:18:30;7.17;;;5.13;;
7171;SDS011;3627;46.544;14.944;2023-04-06T00:20:56;8.03;;;5.53;;
7171;SDS011;3627;46.544;14.944;2023-04-06T00:23:24;5.87;;;5.17;;
7171;SDS011;3627;46.544;14.944;2023-04-06T00:25:50;7.57;;;5.13;;
7171;SDS011;3627;46.544;14.944;2023-04-06T00:28:17;6.67;;;5.23;;
7171;SDS011;3627;46.544;14.944;2023-04-06T00:30:50;7.93;;;5.40;;
7171;SDS011;3627;46.544;14.944;2023-04-06T00:33:17;7.73;;;6.13;;
7171;SDS011;3627;46.544;14.944;2023-04-06T00:35:44;11.47;;;5.87;;
7171;SDS011;3627;46.544;14.944;2023-04-06T00:38:10;8.60;;;5.83;;
7171;SDS011;3627;46.544;14.944;2023-04-06T00:40:38;7.50;;;5.20;;
7171;SDS011;3627;46.544;14.944;2023-04-06T00:43:05;9.10;;;5.57;;
7171;SDS011;3627;46.544;14.944;2023-04-06T00:45:31;8.90;;;5.70;;
7171;SDS011;3627;46.544;14.944;2023-04-06T00:47:58;13.47;;;6.57;;
7171;SDS011;3627;46.544;14.944;2023-04-06T00:50:25;10.13;;;5.97;;
7171;SDS011;3627;46.544;14.944;2023-04-06T00:52:51;8.20;;;6.50;;
7171;SDS011;3627;46.544;14.944;2023-04-06T00:55:18;11.47;;;6.30;;
7171;SDS011;3627;46.544;14.944;2023-04-06T00:57:46;9.87;;;6.10;;
7171;SDS011;3627;46.544;14.944;2023-04-06T01:00:12;7.60;;;5.93;;
7171;SDS011;3627;46.544;14.944;2023-04-06T01:02:39;8.70;;;6.47;;
7171;SDS011;3627;46.544;14.944;2023-04-06T01:05:06;7.77;;;5.97;;
7171;SDS011;3627;46.544;14.944;2023-04-06T01:07:32;9.20;;;6.47;;
7171;SDS011;3627;46.544;14.944;2023-04-06T01:09:59;9.40;;;6.27;;
7171;SDS011;3627;46.544;14.944;2023-04-06T01:12:27;7.97;;;5.83;;
7171;SDS011;3627;46.544;14.944;2023-04-06T01:14:55;7.90;;;6.20;;
7171;SDS011;3627;46.544;14.944;2023-04-06T01:17:22;8.73;;;6.53;;
7171;SDS011;3627;46.544;14.944;2023-04-06T01:19:48;9.33;;;6.60;;
7171;SDS011;3627;46.544;14.944;2023-04-06T01:22:17;9.27;;;6.37;;
7171;SDS011;3627;46.544;14.944;2023-04-06T01:24:44;6.63;;;5.83;;
7171;SDS011;3627;46.544;14.944;2023-04-06T01:27:10;7.43;;;6.00;;
7171;SDS011;3627;46.544;14.944;2023-04-06T01:29:37;7.37;;;5.23;;
7171;SDS011;3627;46.544;14.944;2023-04-06T01:32:06;8.67;;;6.50;;
7171;SDS011;3627;46.544;14.944;2023-04-06T01:34:32;6.67;;;5.73;;
7171;SDS011;3627;46.544;14.944;2023-04-06T01:36:58;8.20;;;6.57;;
7171;SDS011;3627;46.544;14.944;2023-04-06T01:39:26;8.67;;;6.23;;
7171;SDS011;3627;46.544;14.944;2023-04-06T01:41:53;9.77;;;6.63;;
7171;SDS011;3627;46.544;14.944;2023-04-06T01:44:19;9.47;;;6.13;;
7171;SDS011;3627;46.544;14.944;2023-04-06T01:46:45;8.27;;;6.00;;
7171;SDS011;3627;46.544;14.944;2023-04-06T01:49:12;8.47;;;5.83;;
7171;SDS011;3627;46.544;14.944;2023-04-06T01:51:39;9.23;;;6.40;;
7171;SDS011;3627;46.544;14.944;2023-04-06T01:54:05;10.30;;;6.00;;
7171;SDS011;3627;46.544;14.944;2023-04-06T01:56:33;9.00;;;6.17;;
7171;SDS011;3627;46.544;14.944;2023-04-06T01:59:00;7.30;;;5.73;;
7171;SDS011;3627;46.544;14.944;2023-04-06T02:01:27;6.80;;;5.73;;
7171;SDS011;3627;46.544;14.944;2023-04-06T02:03:53;8.57;;;6.13;;
7171;SDS011;3627;46.544;14.944;2023-04-06T02:06:20;10.60;;;5.97;;
7171;SDS011;3627;46.544;14.944;2023-04-06T02:08:46;7.50;;;5.67;;
7171;SDS011;3627;46.544;14.944;2023-04-06T02:11:12;8.90;;;5.97;;
7171;SDS011;3627;46.544;14.944;2023-04-06T02:13:40;9.37;;;6.13;;
7171;SDS011;3627;46.544;14.944;2023-04-06T02:16:06;10.93;;;6.50;;
7171;SDS011;3627;46.544;14.944;2023-04-06T02:18:33;8.13;;;6.17;;
7171;SDS011;3627;46.544;14.944;2023-04-06T02:20:59;6.93;;;6.20;;
7171;SDS011;3627;46.544;14.944;2023-04-06T02:23:26;8.87;;;6.27;;
7171;SDS011;3627;46.544;14.944;2023-04-06T02:25:52;10.10;;;6.60;;
7171;SDS011;3627;46.544;14.944;2023-04-06T02:28:19;7.10;;;5.73;;
7171;SDS011;3627;46.544;14.944;2023-04-06T02:30:47;7.93;;;6.43;;
7171;SDS011;3627;46.544;14.944;2023-04-06T02:33:13;6.63;;;5.40;;
7171;SDS011;3627;46.544;14.944;2023-04-06T02:35:40;7.63;;;5.73;;
7171;SDS011;3627;46.544;14.944;2023-04-06T02:38:06;9.77;;;6.30;;
7171;SDS011;3627;46.544;14.944;2023-04-06T02:40:32;9.10;;;5.57;;
7171;SDS011;3627;46.544;14.944;2023-04-06T02:42:59;6.77;;;5.50;;
7171;SDS011;3627;46.544;14.944;2023-04-06T02:45:25;7.63;;;5.90;;
7171;SDS011;3627;46.544;14.944;2023-04-06T02:47:53;6.87;;;5.70;;
7171;SDS011;3627;46.544;14.944;2023-04-06T02:50:19;9.43;;;5.90;;
7171;SDS011;3627;46.544;14.944;2023-04-06T02:52:46;10.27;;;6.87;;
7171;SDS011;3627;46.544;14.944;2023-04-06T02:55:12;10.20;;;7.00;;
7171;SDS011;3627;46.544;14.944;2023-04-06T02:57:39;9.93;;;6.47;;
7171;SDS011;3627;46.544;14.944;2023-04-06T03:00:05;8.27;;;6.60;;
7171;SDS011;3627;46.544;14.944;2023-04-06T03:02:32;8.23;;;6.00;;
7171;SDS011;3627;46.544;14.944;2023-04-06T03:05:00;10.80;;;6.97;;
7171;SDS011;3627;46.544;14.944;2023-04-06T03:07:28;11.07;;;7.50;;
7171;SDS011;3627;46.544;14.944;2023-04-06T03:09:54;8.87;;;6.43;;
7171;SDS011;3627;46.544;14.944;2023-04-06T03:12:21;11.90;;;6.70;;
7171;SDS011;3627;46.544;14.944;2023-04-06T03:14:47;14.07;;;6.73;;
7171;SDS011;3627;46.544;14.944;2023-04-06T03:17:14;8.03;;;6.70;;
7171;SDS011;3627;46.544;14.944;2023-04-06T03:19:40;9.07;;;6.80;;
7171;SDS011;3627;46.544;14.944;2023-04-06T03:22:08;8.30;;;6.50;;
7171;SDS011;3627;46.544;14.944;2023-04-06T03:24:34;8.37;;;6.33;;
7171;SDS011;3627;46.544;14.944;2023-04-06T03:27:00;10.43;;;6.73;;
7171;SDS011;3627;46.544;14.944;2023-04-06T03:29:27;10.47;;;7.30;;
7171;SDS011;3627;46.544;14.944;2023-04-06T03:31:53;10.87;;;7.67;;
7171;SDS011;3627;46.544;14.944;2023-04-06T03:34:20;10.03;;;7.03;;
7171;SDS011;3627;46.544;14.944;2023-04-06T03:36:46;9.13;;;6.03;;
7171;SDS011;3627;46.544;14.944;2023-04-06T03:39:14;8.47;;;6.13;;
7171;SDS011;3627;46.544;14.944;2023-04-06T03:41:40;11.10;;;7.10;;
7171;SDS011;3627;46.544;14.944;2023-04-06T03:44:06;12.53;;;7.03;;
7171;SDS011;3627;46.544;14.944;2023-04-06T03:46:33;11.40;;;6.90;;
7171;SDS011;3627;46.544;14.944;2023-04-06T03:48:59;11.33;;;6.60;;
7171;SDS011;3627;46.544;14.944;2023-04-06T03:51:26;10.77;;;6.27;;
7171;SDS011;3627;46.544;14.944;2023-04-06T03:53:53;9.83;;;6.07;;
7171;SDS011;3627;46.544;14.944;2023-04-06T03:56:21;8.17;;;5.83;;
7171;SDS011;3627;46.544;14.944;2023-04-06T03:58:47;6.03;;;5.23;;
7171;SDS011;3627;46.544;14.944;2023-04-06T04:01:15;8.90;;;7.20;;
7171;SDS011;3627;46.544;14.944;2023-04-06T04:03:42;13.07;;;8.77;;
7171;SDS011;3627;46.544;14.944;2023-04-06T04:06:08;10.33;;;6.70;;
7171;SDS011;3627;46.544;14.944;2023-04-06T04:08:34;9.10;;;7.13;;
7171;SDS011;3627;46.544;14.944;2023-04-06T04:11:01;14.17;;;8.93;;
7171;SDS011;3627;46.544;14.944;2023-04-06T04:13:29;12.33;;;8.50;;
7171;SDS011;3627;46.544;14.944;2023-04-06T04:15:55;12.63;;;8.03;;
7171;SDS011;3627;46.544;14.944;2023-04-06T04:18:21;11.70;;;7.03;;
7171;SDS011;3627;46.544;14.944;2023-04-06T04:20:48;11.33;;;7.30;;
7171;SDS011;3627;46.544;14.944;2023-04-06T04:23:14;9.27;;;7.43;;
7171;SDS011;3627;46.544;14.944;2023-04-06T04:25:41;10.50;;;6.60;;
7171;SDS011;3627;46.544;14.944;2023-04-06T04:28:07;10.57;;;6.73;;
7171;SDS011;3627;46.544;14.944;2023-04-06T04:30:35;9.93;;;6.37;;
7171;SDS011;3627;46.544;14.944;2023-04-06T04:33:01;8.30;;;6.73;;
7171;SDS011;3627;46.544;14.944;2023-04-06T04:35:27;8.70;;;6.17;;
7171;SDS011;3627;46.544;14.944;2023-04-06T04:37:54;10.00;;;6.57;;
7171;SDS011;3627;46.544;14.944;2023-04-06T04:40:20;9.43;;;6.73;;
7171;SDS011;3627;46.544;14.944;2023-04-06T04:42:47;7.13;;;5.47;;
7171;SDS011;3627;46.544;14.944;2023-04-06T04:45:13;8.60;;;6.17;;
7171;SDS011;3627;46.544;14.944;2023-04-06T04:47:42;11.40;;;7.13;;
7171;SDS011;3627;46.544;14.944;2023-04-06T04:50:09;8.77;;;6.63;;
7171;SDS011;3627;46.544;14.944;2023-04-06T04:52:36;9.60;;;7.10;;
7171;SDS011;3627;46.544;14.944;2023-04-06T04:55:03;9.43;;;6.50;;
7171;SDS011;3627;46.544;14.944;2023-04-06T04:57:30;8.47;;;5.97;;
7171;SDS011;3627;46.544;14.944;2023-04-06T04:59:56;7.27;;;5.73;;
7171;SDS011;3627;46.544;14.944;2023-04-06T05:02:23;7.50;;;6.17;;
7171;SDS011;3627;46.544;14.944;2023-04-06T05:04:51;9.97;;;7.17;;
7171;SDS011;3627;46.544;14.944;2023-04-06T05:07:17;10.37;;;6.80;;
7171;SDS011;3627;46.544;14.944;2023-04-06T05:09:45;9.17;;;6.90;;
7171;SDS011;3627;46.544;14.944;2023-04-06T05:12:12;8.20;;;5.87;;
7171;SDS011;3627;46.544;14.944;2023-04-06T05:14:38;6.27;;;5.17;;
7171;SDS011;3627;46.544;14.944;2023-04-06T05:17:05;9.07;;;5.43;;
7171;SDS011;3627;46.544;14.944;2023-04-06T05:19:31;7.23;;;4.93;;
7171;SDS011;3627;46.544;14.944;2023-04-06T05:21:59;8.03;;;5.57;;
7171;SDS011;3627;46.544;14.944;2023-04-06T05:24:25;8.53;;;5.63;;
7171;SDS011;3627;46.544;14.944;2023-04-06T05:26:52;8.60;;;5.27;;
7171;SDS011;3627;46.544;14.944;2023-04-06T05:29:18;13.07;;;6.03;;
7171;SDS011;3627;46.544;14.944;2023-04-06T05:31:45;14.40;;;7.05;;
7171;SDS011;3627;46.544;14.944;2023-04-06T05:34:12;10.02;;;7.82;;
7171;SDS011;3627;46.544;14.944;2023-04-06T05:36:38;13.10;;;7.55;;
7171;SDS011;3627;46.544;14.944;2023-04-06T05:39:07;10.07;;;6.75;;
7171;SDS011;3627;46.544;14.944;2023-04-06T05:41:33;9.05;;;6.18;;
7171;SDS011;3627;46.544;14.944;2023-04-06T05:44:00;11.88;;;6.90;;
7171;SDS011;3627;46.544;14.944;2023-04-06T05:46:26;13.77;;;6.95;;
7171;SDS011;3627;46.544;14.944;2023-04-06T05:48:53;18.45;;;8.00;;
7171;SDS011;3627;46.544;14.944;2023-04-06T05:51:19;13.50;;;6.63;;
7171;SDS011;3627;46.544;14.944;2023-04-06T05:53:45;7.47;;;5.65;;
7171;SDS011;3627;46.544;14.944;2023-04-06T05:56:13;10.13;;;5.75;;
7171;SDS011;3627;46.544;14.944;2023-04-06T05:58:40;10.05;;;5.78;;
7171;SDS011;3627;46.544;14.944;2023-04-06T06:01:06;12.25;;;6.68;;
7171;SDS011;3627;46.544;14.944;2023-04-06T06:03:34;8.35;;;5.55;;
7171;SDS011;3627;46.544;14.944;2023-04-06T06:06:00;10.27;;;5.15;;
7171;SDS011;3627;46.544;14.944;2023-04-06T06:08:27;13.70;;;7.03;;
7171;SDS011;3627;46.544;14.944;2023-04-06T06:10:53;9.60;;;6.78;;
7171;SDS011;3627;46.544;14.944;2023-04-06T06:13:21;11.07;;;6.55;;
7171;SDS011;3627;46.544;14.944;2023-04-06T06:15:48;15.00;;;6.65;;
7171;SDS011;3627;46.544;14.944;2023-04-06T06:18:14;11.98;;;6.13;;
7171;SDS011;3627;46.544;14.944;2023-04-06T06:20:40;8.55;;;6.28;;
7171;SDS011;3627;46.544;14.944;2023-04-06T06:23:07;11.60;;;6.13;;
7171;SDS011;3627;46.544;14.944;2023-04-06T06:25:33;8.75;;;5.38;;
7171;SDS011;3627;46.544;14.944;2023-04-06T06:28:00;8.50;;;5.30;;
7171;SDS011;3627;46.544;14.944;2023-04-06T06:30:27;9.85;;;5.10;;
7171;SDS011;3627;46.544;14.944;2023-04-06T06:32:54;7.05;;;5.07;;
7171;SDS011;3627;46.544;14.944;2023-04-06T06:35:20;7.47;;;4.88;;
7171;SDS011;3627;46.544;14.944;2023-04-06T06:37:46;6.82;;;4.80;;
7171;SDS011;3627;46.544;14.944;2023-04-06T06:40:13;11.82;;;4.85;;
7171;SDS011;3627;46.544;14.944;2023-04-06T06:42:41;8.93;;;4.93;;
7171;SDS011;3627;46.544;14.944;2023-04-06T06:45:07;6.70;;;4.85;;
7171;SDS011;3627;46.544;14.944;2023-04-06T06:47:36;9.77;;;5.38;;
7171;SDS011;3627;46.544;14.944;2023-04-06T06:50:02;10.07;;;4.82;;
7171;SDS011;3627;46.544;14.944;2023-04-06T06:52:29;12.40;;;7.40;;
7171;SDS011;3627;46.544;14.944;2023-04-06T06:54:56;12.73;;;9.52;;
7171;SDS011;3627;46.544;14.944;2023-04-06T06:57:22;11.77;;;6.55;;
7171;SDS011;3627;46.544;14.944;2023-04-06T06:59:49;7.88;;;4.72;;
7171;SDS011;3627;46.544;14.944;2023-04-06T07:02:15;10.32;;;6.43;;
7171;SDS011;3627;46.544;14.944;2023-04-06T07:04:43;9.05;;;5.25;;
7171;SDS011;3627;46.544;14.944;2023-04-06T07:07:09;8.13;;;5.43;;
7171;SDS011;3627;46.544;14.944;2023-04-06T07:09:35;8.52;;;5.03;;
7171;SDS011;3627;46.544;14.944;2023-04-06T07:12:02;7.85;;;5.00;;
7171;SDS011;3627;46.544;14.944;2023-04-06T07:14:28;11.68;;;6.40;;
7171;SDS011;3627;46.544;14.944;2023-04-06T07:16:55;9.93;;;4.78;;
7171;SDS011;3627;46.544;14.944;2023-04-06T07:19:21;7.68;;;4.60;;
7171;SDS011;3627;46.544;14.944;2023-04-06T07:21:49;6.05;;;3.90;;
7171;SDS011;3627;46.544;14.944;2023-04-06T07:24:15;8.52;;;3.90;;
7171;SDS011;3627;46.544;14.944;2023-04-06T07:26:42;4.97;;;4.05;;
7171;SDS011;3627;46.544;14.944;2023-04-06T07:29:08;6.60;;;3.70;;
7171;SDS011;3627;46.544;14.944;2023-04-06T07:31:34;6.07;;;3.75;;
7171;SDS011;3627;46.544;14.944;2023-04-06T07:34:01;7.20;;;3.85;;
7171;SDS011;3627;46.544;14.944;2023-04-06T07:36:27;8.23;;;5.05;;
7171;SDS011;3627;46.544;14.944;2023-04-06T07:38:55;6.47;;;4.53;;
7171;SDS011;3627;46.544;14.944;2023-04-06T07:41:22;8.57;;;5.43;;
7171;SDS011;3627;46.544;14.944;2023-04-06T07:43:49;11.10;;;4.47;;
7171;SDS011;3627;46.544;14.944;2023-04-06T07:46:15;7.10;;;4.22;;
7171;SDS011;3627;46.544;14.944;2023-04-06T07:48:41;5.65;;;3.75;;
7171;SDS011;3627;46.544;14.944;2023-04-06T07:51:08;7.78;;;3.78;;
7171;SDS011;3627;46.544;14.944;2023-04-06T07:53:39;11.52;;;4.75;;
7171;SDS011;3627;46.544;14.944;2023-04-06T07:56:06;5.13;;;3.65;;
7171;SDS011;3627;46.544;14.944;2023-04-06T07:58:33;7.43;;;3.88;;
7171;SDS011;3627;46.544;14.944;2023-04-06T08:00:59;4.88;;;4.03;;
7171;SDS011;3627;46.544;14.944;2023-04-06T08:03:27;5.88;;;3.20;;
7171;SDS011;3627;46.544;14.944;2023-04-06T08:05:53;8.60;;;3.33;;
7171;SDS011;3627;46.544;14.944;2023-04-06T08:08:20;5.50;;;2.92;;
7171;SDS011;3627;46.544;14.944;2023-04-06T08:10:47;5.47;;;3.47;;
7171;SDS011;3627;46.544;14.944;2023-04-06T08:13:15;5.35;;;3.80;;
7171;SDS011;3627;46.544;14.944;2023-04-06T08:15:42;5.07;;;4.13;;
7171;SDS011;3627;46.544;14.944;2023-04-06T08:18:08;5.35;;;3.60;;
7171;SDS011;3627;46.544;14.944;2023-04-06T08:20:35;6.80;;;4.20;;
7171;SDS011;3627;46.544;14.944;2023-04-06T08:23:01;7.07;;;3.15;;
7171;SDS011;3627;46.544;14.944;2023-04-06T08:25:29;8.52;;;4.00;;
7171;SDS011;3627;46.544;14.944;2023-04-06T08:27:56;5.00;;;3.72;;
7171;SDS011;3627;46.544;14.944;2023-04-06T08:30:24;7.40;;;3.92;;
7171;SDS011;3627;46.544;14.944;2023-04-06T08:32:50;5.47;;;3.53;;
7171;SDS011;3627;46.544;14.944;2023-04-06T08:35:16;4.32;;;3.58;;
7171;SDS011;3627;46.544;14.944;2023-04-06T08:37:43;4.45;;;3.15;;
7171;SDS011;3627;46.544;14.944;2023-04-06T08:40:09;5.93;;;3.50;;
7171;SDS011;3627;46.544;14.944;2023-04-06T08:42:38;4.53;;;3.72;;
7171;SDS011;3627;46.544;14.944;2023-04-06T08:45:05;4.68;;;3.72;;
7171;SDS011;3627;46.544;14.944;2023-04-06T08:47:33;5.50;;;3.67;;
7171;SDS011;3627;46.544;14.944;2023-04-06T08:50:01;5.70;;;3.58;;
7171;SDS011;3627;46.544;14.944;2023-04-06T08:52:28;4.72;;;3.42;;
7171;SDS011;3627;46.544;14.944;2023-04-06T08:54:55;9.52;;;4.07;;
7171;SDS011;3627;46.544;14.944;2023-04-06T08:57:22;5.95;;;3.70;;
7171;SDS011;3627;46.544;14.944;2023-04-06T08:59:48;7.50;;;3.30;;
7171;SDS011;3627;46.544;14.944;2023-04-06T09:02:16;5.30;;;3.40;;
7171;SDS011;3627;46.544;14.944;2023-04-06T09:04:44;5.88;;;3.38;;
7171;SDS011;3627;46.544;14.944;2023-04-06T09:07:11;3.60;;;3.20;;
7171;SDS011;3627;46.544;14.944;2023-04-06T09:09:38;4.15;;;3.40;;
7171;SDS011;3627;46.544;14.944;2023-04-06T09:12:08;5.65;;;4.55;;
7171;SDS011;3627;46.544;14.944;2023-04-06T09:14:37;4.05;;;3.20;;
7171;SDS011;3627;46.544;14.944;2023-04-06T09:17:04;4.05;;;3.25;;
7171;SDS011;3627;46.544;14.944;2023-04-06T09:19:30;3.60;;;2.95;;
7171;SDS011;3627;46.544;14.944;2023-04-06T09:22:05;3.58;;;3.17;;
7171;SDS011;3627;46.544;14.944;2023-04-06T09:24:41;4.28;;;3.10;;
7171;SDS011;3627;46.544;14.944;2023-04-06T09:27:08;4.40;;;3.15;;
7171;SDS011;3627;46.544;14.944;2023-04-06T09:29:34;6.85;;;4.80;;
7171;SDS011;3627;46.544;14.944;2023-04-06T09:32:02;4.78;;;4.15;;
7171;SDS011;3627;46.544;14.944;2023-04-06T09:34:28;6.55;;;4.38;;
7171;SDS011;3627;46.544;14.944;2023-04-06T09:36:55;5.32;;;3.60;;
7171;SDS011;3627;46.544;14.944;2023-04-06T09:39:23;5.78;;;4.28;;
7171;SDS011;3627;46.544;14.944;2023-04-06T09:41:50;4.93;;;3.95;;
7171;SDS011;3627;46.544;14.944;2023-04-06T09:44:17;5.68;;;3.53;;
7171;SDS011;3627;46.544;14.944;2023-04-06T09:46:44;4.43;;;3.75;;
7171;SDS011;3627;46.544;14.944;2023-04-06T09:49:11;3.58;;;2.97;;
7171;SDS011;3627;46.544;14.944;2023-04-06T09:51:38;5.90;;;4.30;;
7171;SDS011;3627;46.544;14.944;2023-04-06T09:54:06;5.07;;;3.88;;
7171;SDS011;3627;46.544;14.944;2023-04-06T09:56:42;5.22;;;3.95;;
7171;SDS011;3627;46.544;14.944;2023-04-06T09:59:12;8.50;;;4.32;;
7171;SDS011;3627;46.544;14.944;2023-04-06T10:01:39;7.00;;;4.60;;
7171;SDS011;3627;46.544;14.944;2023-04-06T10:04:09;5.63;;;4.90;;
7171;SDS011;3627;46.544;14.944;2023-04-06T10:06:39;7.88;;;5.15;;
7171;SDS011;3627;46.544;14.944;2023-04-06T10:09:05;7.57;;;4.95;;
7171;SDS011;3627;46.544;14.944;2023-04-06T10:11:35;5.18;;;4.65;;
7171;SDS011;3627;46.544;14.944;2023-04-06T10:14:02;6.60;;;4.15;;
7171;SDS011;3627;46.544;14.944;2023-04-06T10:16:28;6.70;;;5.00;;
7171;SDS011;3627;46.544;14.944;2023-04-06T10:18:56;7.53;;;5.60;;
7171;SDS011;3627;46.544;14.944;2023-04-06T10:21:25;8.70;;;5.35;;
7171;SDS011;3627;46.544;14.944;2023-04-06T10:23:52;9.52;;;5.53;;
7171;SDS011;3627;46.544;14.944;2023-04-06T10:26:20;4.85;;;4.40;;
7171;SDS011;3627;46.544;14.944;2023-04-06T10:28:49;5.55;;;4.68;;
7171;SDS011;3627;46.544;14.944;2023-04-06T10:31:23;6.28;;;4.80;;
7171;SDS011;3627;46.544;14.944;2023-04-06T10:33:53;7.00;;;5.38;;
7171;SDS011;3627;46.544;14.944;2023-04-06T10:36:21;13.18;;;7.75;;
7171;SDS011;3627;46.544;14.944;2023-04-06T10:38:53;8.23;;;4.85;;
7171;SDS011;3627;46.544;14.944;2023-04-06T10:41:19;5.00;;;4.22;;
7171;SDS011;3627;46.544;14.944;2023-04-06T10:43:46;6.97;;;4.57;;
7171;SDS011;3627;46.544;14.944;2023-04-06T10:46:25;6.80;;;4.50;;
7171;SDS011;3627;46.544;14.944;2023-04-06T10:48:52;6.18;;;4.22;;
7171;SDS011;3627;46.544;14.944;2023-04-06T10:51:18;5.63;;;4.88;;
7171;SDS011;3627;46.544;14.944;2023-04-06T10:53:45;7.13;;;4.43;;
7171;SDS011;3627;46.544;14.944;2023-04-06T10:56:13;5.97;;;4.38;;
7171;SDS011;3627;46.544;14.944;2023-04-06T10:58:43;4.70;;;4.20;;
7171;SDS011;3627;46.544;14.944;2023-04-06T11:01:10;3.83;;;3.47;;
7171;SDS011;3627;46.544;14.944;2023-04-06T11:03:43;6.88;;;4.03;;
7171;SDS011;3627;46.544;14.944;2023-04-06T11:06:10;6.10;;;4.75;;
7171;SDS011;3627;46.544;14.944;2023-04-06T11:08:37;8.18;;;4.90;;
7171;SDS011;3627;46.544;14.944;2023-04-06T11:11:05;5.38;;;4.82;;
7171;SDS011;3627;46.544;14.944;2023-04-06T11:13:36;6.53;;;4.82;;
7171;SDS011;3627;46.544;14.944;2023-04-06T11:16:03;8.02;;;4.20;;
7171;SDS011;3627;46.544;14.944;2023-04-06T11:18:30;8.98;;;4.65;;
7171;SDS011;3627;46.544;14.944;2023-04-06T11:20:58;3.47;;;3.17;;
7171;SDS011;3627;46.544;14.944;2023-04-06T11:23:25;4.20;;;3.80;;
7171;SDS011;3627;46.544;14.944;2023-04-06T11:25:51;4.78;;;3.90;;
7171;SDS011;3627;46.544;14.944;2023-04-06T11:28:18;3.80;;;3.50;;
7171;SDS011;3627;46.544;14.944;2023-04-06T11:30:44;4.32;;;3.92;;
7171;SDS011;3627;46.544;14.944;2023-04-06T11:33:11;5.60;;;3.80;;
7171;SDS011;3627;46.544;14.944;2023-04-06T11:35:37;11.38;;;4.80;;
7171;SDS011;3627;46.544;14.944;2023-04-06T11:38:05;5.10;;;3.97;;
7171;SDS011;3627;46.544;14.944;2023-04-06T11:40:31;5.53;;;4.32;;
7171;SDS011;3627;46.544;14.944;2023-04-06T11:42:58;4.97;;;3.80;;
7171;SDS011;3627;46.544;14.944;2023-04-06T11:45:24;5.25;;;4.18;;
7171;SDS011;3627;46.544;14.944;2023-04-06T11:47:57;7.80;;;4.22;;
7171;SDS011;3627;46.544;14.944;2023-04-06T11:50:24;11.45;;;4.82;;
7171;SDS011;3627;46.544;14.944;2023-04-06T11:52:57;8.40;;;4.80;;
7171;SDS011;3627;46.544;14.944;2023-04-06T11:55:25;4.82;;;3.97;;
7171;SDS011;3627;46.544;14.944;2023-04-06T11:57:52;4.35;;;3.72;;
7171;SDS011;3627;46.544;14.944;2023-04-06T12:00:19;5.13;;;3.50;;
7171;SDS011;3627;46.544;14.944;2023-04-06T12:02:46;4.43;;;4.00;;
7171;SDS011;3627;46.544;14.944;2023-04-06T12:05:13;11.73;;;7.70;;
7171;SDS011;3627;46.544;14.944;2023-04-06T12:07:39;4.78;;;4.30;;
7171;SDS011;3627;46.544;14.944;2023-04-06T12:10:06;5.35;;;4.03;;
7171;SDS011;3627;46.544;14.944;2023-04-06T12:12:34;5.78;;;3.95;;
7171;SDS011;3627;46.544;14.944;2023-04-06T12:15:00;7.70;;;5.47;;
7171;SDS011;3627;46.544;14.944;2023-04-06T12:17:27;5.28;;;4.03;;
7171;SDS011;3627;46.544;14.944;2023-04-06T12:19:53;5.35;;;4.00;;
7171;SDS011;3627;46.544;14.944;2023-04-06T12:22:19;5.38;;;3.85;;
7171;SDS011;3627;46.544;14.944;2023-04-06T12:24:46;7.15;;;3.97;;
7171;SDS011;3627;46.544;14.944;2023-04-06T12:27:12;4.80;;;4.30;;
7171;SDS011;3627;46.544;14.944;2023-04-06T12:29:40;6.05;;;4.38;;
7171;SDS011;3627;46.544;14.944;2023-04-06T12:32:06;4.32;;;3.70;;
7171;SDS011;3627;46.544;14.944;2023-04-06T12:34:33;5.13;;;3.85;;
7171;SDS011;3627;46.544;14.944;2023-04-06T12:36:59;6.85;;;3.92;;
7171;SDS011;3627;46.544;14.944;2023-04-06T12:39:27;5.43;;;3.50;;
7171;SDS011;3627;46.544;14.944;2023-04-06T12:41:53;10.35;;;6.00;;
7171;SDS011;3627;46.544;14.944;2023-04-06T12:44:20;5.72;;;4.78;;
7171;SDS011;3627;46.544;14.944;2023-04-06T12:46:48;5.05;;;3.80;;
7171;SDS011;3627;46.544;14.944;2023-04-06T12:49:15;5.18;;;4.15;;
7171;SDS011;3627;46.544;14.944;2023-04-06T12:51:43;3.88;;;3.47;;
7171;SDS011;3627;46.544;14.944;2023-04-06T12:54:10;4.65;;;3.50;;
7171;SDS011;3627;46.544;14.944;2023-04-06T12:56:36;3.47;;;3.17;;
7171;SDS011;3627;46.544;14.944;2023-04-06T12:59:03;5.72;;;3.97;;
7171;SDS011;3627;46.544;14.944;2023-04-06T13:01:30;3.75;;;3.05;;
7171;SDS011;3627;46.544;14.944;2023-04-06T13:03:58;5.35;;;2.95;;
7171;SDS011;3627;46.544;14.944;2023-04-06T13:06:24;3.58;;;3.10;;
7171;SDS011;3627;46.544;14.944;2023-04-06T13:08:52;3.40;;;3.10;;
7171;SDS011;3627;46.544;14.944;2023-04-06T13:11:19;3.88;;;3.47;;
7171;SDS011;3627;46.544;14.944;2023-04-06T13:13:48;5.07;;;3.60;;
7171;SDS011;3627;46.544;14.944;2023-04-06T13:16:14;5.35;;;4.07;;
7171;SDS011;3627;46.544;14.944;2023-04-06T13:18:41;4.03;;;2.58;;
7171;SDS011;3627;46.544;14.944;2023-04-06T13:21:09;3.25;;;2.95;;
7171;SDS011;3627;46.544;14.944;2023-04-06T13:23:39;4.53;;;3.47;;
7171;SDS011;3627;46.544;14.944;2023-04-06T13:26:06;4.22;;;3.30;;
7171;SDS011;3627;46.544;14.944;2023-04-06T13:28:33;5.20;;;3.78;;
7171;SDS011;3627;46.544;14.944;2023-04-06T13:31:00;4.05;;;3.65;;
7171;SDS011;3627;46.544;14.944;2023-04-06T13:33:26;4.20;;;3.80;;
7171;SDS011;3627;46.544;14.944;2023-04-06T13:35:53;6.68;;;4.35;;
7171;SDS011;3627;46.544;14.944;2023-04-06T13:38:20;5.05;;;4.00;;
7171;SDS011;3627;46.544;14.944;2023-04-06T13:40:49;7.97;;;4.22;;
7171;SDS011;3627;46.544;14.944;2023-04-06T13:43:15;6.22;;;4.90;;
7171;SDS011;3627;46.544;14.944;2023-04-06T13:45:48;5.35;;;3.88;;
7171;SDS011;3627;46.544;14.944;2023-04-06T13:48:14;4.57;;;3.45;;
7171;SDS011;3627;46.544;14.944;2023-04-06T13:50:41;4.40;;;3.63;;
7171;SDS011;3627;46.544;14.944;2023-04-06T13:53:09;4.22;;;3.83;;
7171;SDS011;3627;46.544;14.944;2023-04-06T13:55:37;4.00;;;3.60;;
7171;SDS011;3627;46.544;14.944;2023-04-06T13:58:03;6.25;;;4.20;;
7171;SDS011;3627;46.544;14.944;2023-04-06T14:00:30;5.50;;;4.18;;
7171;SDS011;3627;46.544;14.944;2023-04-06T14:02:56;4.35;;;3.88;;
7171;SDS011;3627;46.544;14.944;2023-04-06T14:05:23;6.30;;;3.70;;
7171;SDS011;3627;46.544;14.944;2023-04-06T14:07:49;4.28;;;3.88;;
7171;SDS011;3627;46.544;14.944;2023-04-06T14:10:16;4.75;;;4.00;;
7171;SDS011;3627;46.544;14.944;2023-04-06T14:12:43;4.45;;;3.83;;
7171;SDS011;3627;46.544;14.944;2023-04-06T14:15:10;5.18;;;3.72;;
7171;SDS011;3627;46.544;14.944;2023-04-06T14:17:37;4.47;;;3.97;;
7171;SDS011;3627;46.544;14.944;2023-04-06T14:20:05;5.32;;;4.10;;
7171;SDS011;3627;46.544;14.944;2023-04-06T14:22:32;4.68;;;3.85;;
7171;SDS011;3627;46.544;14.944;2023-04-06T14:24:58;4.93;;;4.18;;
7171;SDS011;3627;46.544;14.944;2023-04-06T14:27:24;4.80;;;4.00;;
7171;SDS011;3627;46.544;14.944;2023-04-06T14:29:52;6.63;;;3.60;;
7171;SDS011;3627;46.544;14.944;2023-04-06T14:32:21;5.00;;;3.90;;
7171;SDS011;3627;46.544;14.944;2023-04-06T14:34:47;21.75;;;10.35;;
7171;SDS011;3627;46.544;14.944;2023-04-06T14:37:13;10.48;;;5.72;;
7171;SDS011;3627;46.544;14.944;2023-04-06T14:39:41;4.85;;;4.20;;
7171;SDS011;3627;46.544;14.944;2023-04-06T14:42:07;4.18;;;3.67;;
7171;SDS011;3627;46.544;14.944;2023-04-06T14:44:34;5.53;;;3.47;;
7171;SDS011;3627;46.544;14.944;2023-04-06T14:47:02;4.78;;;4.20;;
7171;SDS011;3627;46.544;14.944;2023-04-06T14:49:30;4.32;;;3.75;;
7171;SDS011;3627;46.544;14.944;2023-04-06T14:51:56;3.67;;;3.38;;
7171;SDS011;3627;46.544;14.944;2023-04-06T14:54:23;3.97;;;3.22;;
7171;SDS011;3627;46.544;14.944;2023-04-06T14:56:50;4.40;;;3.58;;